Time,TemperatureF,DewpointF,PressureIn,WindDirection,WindDirectionDegrees,WindSpeedMPH,WindSpeedGustMPH,Humidity,HourlyPrecipIn,Conditions,Clouds,dailyrainin,SoftwareType,DateUTC
2013-09-17 00:01:00,64.2,53.0,29.74,NNW,333,0.0,2.7,67,0.00,,CLR,0.00,VWS V14.01,2013-09-17 07:01:00,
2013-09-17 00:07:00,64.0,53.7,29.74,NNW,333,2.2,2.7,69,0.00,,CLR,0.00,VWS V14.01,2013-09-17 07:07:00,
2013-09-17 00:12:00,64.0,53.7,29.74,NNW,333,2.7,3.1,69,0.00,,CLR,0.00,VWS V14.01,2013-09-17 07:12:00,
2013-09-17 00:18:00,63.8,54.3,29.74,NNW,333,2.7,3.1,71,0.00,,CLR,0.00,VWS V14.01,2013-09-17 07:18:00,
2013-09-17 00:23:00,63.8,54.7,29.74,NNW,333,0.0,0.0,72,0.00,,CLR,0.00,VWS V14.01,2013-09-17 07:23:00,
2013-09-17 00:29:00,63.7,54.5,29.74,NNW,333,0.0,0.0,72,0.00,,CLR,0.00,VWS V14.01,2013-09-17 07:29:00,
2013-09-17 00:34:00,63.5,54.7,29.74,NNW,333,0.0,0.0,73,0.00,,CLR,0.00,VWS V14.01,2013-09-17 07:34:00,
2013-09-17 00:39:00,63.3,54.9,29.74,NNW,333,0.0,0.0,74,0.00,,CLR,0.00,VWS V14.01,2013-09-17 07:39:00,
2013-09-17 00:44:00,63.3,55.2,29.74,NNW,333,0.0,0.0,75,0.00,,CLR,0.00,VWS V14.01,2013-09-17 07:44:00,
2013-09-17 00:50:00,63.1,55.1,29.77,NNW,333,0.0,0.0,75,0.00,,CLR,0.00,VWS V14.01,2013-09-17 07:50:00,
2013-09-17 00:56:00,63.1,55.4,29.77,NNW,333,0.0,2.7,76,0.00,,CLR,0.00,VWS V14.01,2013-09-17 07:56:00,
2013-09-17 01:01:00,62.9,55.6,29.74,NNW,333,2.7,3.6,77,0.00,,CLR,0.00,VWS V14.01,2013-09-17 08:01:00,
2013-09-17 01:07:00,62.9,56.0,29.74,NNW,333,0.0,0.0,78,0.00,,CLR,0.00,VWS V14.01,2013-09-17 08:07:00,
2013-09-17 01:12:00,62.8,55.8,29.74,NNW,333,0.0,0.0,78,0.00,,CLR,0.00,VWS V14.01,2013-09-17 08:12:00,
2013-09-17 01:17:00,62.6,55.6,29.74,NNW,333,0.0,0.0,78,0.00,,CLR,0.00,VWS V14.01,2013-09-17 08:17:00,
2013-09-17 01:22:00,62.4,55.5,29.74,NNW,333,0.0,0.0,78,0.00,,CLR,0.00,VWS V14.01,2013-09-17 08:22:00,
2013-09-17 01:28:00,62.4,55.8,29.74,NNW,333,0.0,0.0,79,0.00,,CLR,0.00,VWS V14.01,2013-09-17 08:28:00,
2013-09-17 01:33:00,62.2,55.6,29.74,NNW,333,0.0,0.0,79,0.00,,CLR,0.00,VWS V14.01,2013-09-17 08:33:00,
2013-09-17 01:39:00,62.2,55.6,29.74,NNW,333,0.0,0.0,79,0.00,,CLR,0.00,VWS V14.01,2013-09-17 08:39:00,
2013-09-17 01:44:00,61.9,55.3,29.74,NNW,333,0.0,0.0,79,0.00,,CLR,0.00,VWS V14.01,2013-09-17 08:44:00,
2013-09-17 01:50:00,61.9,55.3,29.74,NNW,333,0.0,0.0,79,0.00,,CLR,0.00,VWS V14.01,2013-09-17 08:50:00,
2013-09-17 01:55:00,61.7,55.1,29.74,NNW,333,0.0,0.0,79,0.00,,CLR,0.00,VWS V14.01,2013-09-17 08:55:00,
2013-09-17 02:00:00,61.7,55.1,29.74,NNW,333,0.0,0.0,79,0.00,,CLR,0.00,VWS V14.01,2013-09-17 09:00:00,
2013-09-17 02:06:00,61.5,54.9,29.74,NNW,333,0.0,0.0,79,0.00,,CLR,0.00,VWS V14.01,2013-09-17 09:06:00,
2013-09-17 02:11:00,61.5,54.9,29.74,NNW,333,0.0,0.0,79,0.00,,CLR,0.00,VWS V14.01,2013-09-17 09:11:00,
2013-09-17 02:16:00,61.5,55.3,29.74,NNW,333,0.0,0.0,80,0.00,,CLR,0.00,VWS V14.01,2013-09-17 09:16:00,
2013-09-17 02:22:00,61.5,55.3,29.74,NNW,333,0.0,0.0,80,0.00,,CLR,0.00,VWS V14.01,2013-09-17 09:22:00,
2013-09-17 02:28:00,61.5,55.6,29.74,NNW,333,0.0,0.0,81,0.00,,CLR,0.00,VWS V14.01,2013-09-17 09:28:00,
2013-09-17 02:33:00,61.5,55.6,29.74,NNW,333,0.0,0.0,81,0.00,,CLR,0.00,VWS V14.01,2013-09-17 09:33:00,
2013-09-17 02:39:00,61.7,55.8,29.74,NNW,333,0.0,0.0,81,0.00,,CLR,0.00,VWS V14.01,2013-09-17 09:39:00,
2013-09-17 02:44:00,61.9,56.0,29.74,NNW,333,0.0,2.2,81,0.00,,CLR,0.00,VWS V14.01,2013-09-17 09:44:00,
2013-09-17 02:49:00,61.9,56.0,29.74,NNW,332,4.0,4.0,81,0.00,,CLR,0.00,VWS V14.01,2013-09-17 09:49:00,
2013-09-17 02:54:00,62.0,56.2,29.74,NNW,332,0.0,2.2,81,0.00,,,0.00,VWS V14.01,2013-09-17 09:54:00,
2013-09-17 03:00:00,62.0,56.2,29.74,SE,128,4.0,4.0,81,0.00,,,0.00,VWS V14.01,2013-09-17 10:00:00,
2013-09-17 03:06:00,62.2,56.7,29.74,SE,128,0.0,2.2,82,0.00,,,0.00,VWS V14.01,2013-09-17 10:06:00,
2013-09-17 03:11:00,62.2,56.7,29.74,SE,128,2.2,3.6,82,0.00,,,0.00,VWS V14.01,2013-09-17 10:11:00,
2013-09-17 03:16:00,62.2,56.7,29.74,SSW,193,2.2,3.1,82,0.00,,CLR,0.00,VWS V14.01,2013-09-17 10:16:00,
2013-09-17 03:21:00,62.2,56.7,29.74,SSW,193,0.0,0.0,82,0.00,,,0.00,VWS V14.01,2013-09-17 10:21:00,
2013-09-17 03:27:00,62.2,57.0,29.74,SE,136,5.8,5.8,83,0.00,,,0.00,VWS V14.01,2013-09-17 10:27:00,
2013-09-17 03:32:00,62.2,57.0,29.74,SE,136,4.0,4.0,83,0.00,,,0.00,VWS V14.01,2013-09-17 10:32:00,
2013-09-17 03:37:00,62.2,57.0,29.74,SE,136,4.0,4.9,83,0.00,,,0.00,VWS V14.01,2013-09-17 10:37:00,
2013-09-17 03:42:00,62.4,57.2,29.74,SE,136,2.7,2.7,83,0.00,,,0.00,VWS V14.01,2013-09-17 10:42:00,
2013-09-17 03:48:00,62.4,57.5,29.74,SE,136,3.6,3.6,84,0.00,,,0.00,VWS V14.01,2013-09-17 10:48:00,
2013-09-17 03:53:00,62.4,57.5,29.74,SE,137,3.1,3.6,84,0.00,,,0.00,VWS V14.01,2013-09-17 10:53:00,
2013-09-17 03:58:00,62.4,57.5,29.74,SE,130,0.0,3.6,84,0.00,,,0.00,VWS V14.01,2013-09-17 10:58:00,
2013-09-17 04:03:00,62.4,57.5,29.74,SSW,197,0.0,2.7,84,0.00,,,0.00,VWS V14.01,2013-09-17 11:03:00,
2013-09-17 04:09:00,62.2,57.3,29.74,SSW,197,0.0,2.2,84,0.00,,,0.00,VWS V14.01,2013-09-17 11:09:00,
2013-09-17 04:14:00,62.4,57.2,29.74,SSW,197,0.0,0.0,83,0.00,,,0.00,VWS V14.01,2013-09-17 11:14:00,
2013-09-17 04:20:00,62.2,57.3,29.74,SE,127,3.6,4.0,84,0.00,,,0.00,VWS V14.01,2013-09-17 11:20:00,
2013-09-17 04:26:00,62.2,57.0,29.74,SSW,205,0.0,2.7,83,0.00,,,0.00,VWS V14.01,2013-09-17 11:26:00,
2013-09-17 04:31:00,62.2,57.0,29.74,SSW,205,4.0,4.0,83,0.00,,,0.00,VWS V14.01,2013-09-17 11:31:00,
2013-09-17 04:36:00,62.2,57.0,29.74,SSW,205,2.7,2.7,83,0.00,,OVC003,0.00,VWS V14.01,2013-09-17 11:36:00,
2013-09-17 04:42:00,62.2,57.0,29.74,SSW,205,0.0,2.7,83,0.00,,OVC003,0.00,VWS V14.01,2013-09-17 11:42:00,
2013-09-17 04:47:00,62.2,57.0,29.74,SSW,205,0.0,0.0,83,0.00,,OVC003,0.00,VWS V14.01,2013-09-17 11:47:00,
2013-09-17 04:52:00,62.4,57.2,29.74,SSW,205,3.1,3.1,83,0.00,,OVC003,0.00,VWS V14.01,2013-09-17 11:52:00,
2013-09-17 04:57:00,62.4,57.2,29.74,SSW,205,2.7,2.7,83,0.00,,OVC003,0.00,VWS V14.01,2013-09-17 11:57:00,
2013-09-17 05:03:00,62.4,57.2,29.74,SSW,205,0.0,0.0,83,0.00,,OVC003,0.00,VWS V14.01,2013-09-17 12:03:00,
2013-09-17 05:09:00,62.2,57.0,29.74,SSW,205,0.0,2.7,83,0.00,,OVC003,0.00,VWS V14.01,2013-09-17 12:09:00,
2013-09-17 05:14:00,62.4,57.2,29.74,SSW,205,0.0,0.0,83,0.00,,OVC003,0.00,VWS V14.01,2013-09-17 12:14:00,
2013-09-17 05:19:00,62.2,57.3,29.74,SSW,205,0.0,0.0,84,0.00,,OVC003,0.00,VWS V14.01,2013-09-17 12:19:00,
2013-09-17 05:24:00,62.2,57.3,29.74,SSW,205,0.0,0.0,84,0.00,,OVC003,0.00,VWS V14.01,2013-09-17 12:24:00,
2013-09-17 05:30:00,62.2,57.3,29.74,SSW,205,0.0,0.0,84,0.00,,OVC003,0.00,VWS V14.01,2013-09-17 12:30:00,
2013-09-17 05:36:00,62.2,57.3,29.74,SSW,205,0.0,0.0,84,0.00,,OVC003,0.00,VWS V14.01,2013-09-17 12:36:00,
2013-09-17 05:41:00,62.2,57.7,29.74,SSW,205,0.0,0.0,85,0.00,,OVC003,0.00,VWS V14.01,2013-09-17 12:41:00,
2013-09-17 05:47:00,62.2,57.7,29.74,SSW,205,2.7,4.0,85,0.00,,OVC003,0.00,VWS V14.01,2013-09-17 12:47:00,
2013-09-17 05:52:00,62.2,57.7,29.74,SSW,205,0.0,2.7,85,0.00,,,0.00,VWS V14.01,2013-09-17 12:52:00,
2013-09-17 05:58:00,62.2,57.7,29.74,SSW,205,0.0,0.0,85,0.00,,,0.00,VWS V14.01,2013-09-17 12:58:00,
2013-09-17 06:03:00,62.4,57.5,29.77,SSW,205,0.0,0.0,84,0.00,,,0.00,VWS V14.01,2013-09-17 13:03:00,
2013-09-17 06:09:00,62.4,57.5,29.77,SSW,205,0.0,0.0,84,0.00,,,0.00,VWS V14.01,2013-09-17 13:09:00,
2013-09-17 06:15:00,62.4,57.8,29.74,SSW,205,0.0,0.0,85,0.00,,,0.00,VWS V14.01,2013-09-17 13:15:00,
2013-09-17 06:21:00,62.4,57.8,29.74,SSW,205,0.0,0.0,85,0.00,,,0.00,VWS V14.01,2013-09-17 13:21:00,
2013-09-17 06:26:00,62.4,57.8,29.74,SSW,205,3.1,3.6,85,0.00,,,0.00,VWS V14.01,2013-09-17 13:26:00,
2013-09-17 06:32:00,62.4,57.8,29.74,SSW,205,0.0,2.2,85,0.00,,,0.00,VWS V14.01,2013-09-17 13:32:00,
2013-09-17 06:37:00,62.4,57.8,29.74,SSW,205,2.7,2.7,85,0.00,,,0.00,VWS V14.01,2013-09-17 13:37:00,
2013-09-17 06:42:00,62.4,57.8,29.74,SSW,205,0.0,0.0,85,0.00,,,0.00,VWS V14.01,2013-09-17 13:42:00,
2013-09-17 06:47:00,62.4,57.8,29.77,SSW,205,0.0,0.0,85,0.00,,,0.00,VWS V14.01,2013-09-17 13:47:00,
2013-09-17 06:53:00,62.4,57.8,29.77,SSW,205,0.0,0.0,85,0.00,,,0.00,VWS V14.01,2013-09-17 13:53:00,
2013-09-17 06:58:00,62.4,57.8,29.77,SSW,205,4.0,4.0,85,0.00,,,0.00,VWS V14.01,2013-09-17 13:58:00,
2013-09-17 07:04:00,62.4,57.5,29.77,SSW,205,0.0,0.0,84,0.00,,,0.00,VWS V14.01,2013-09-17 14:04:00,
2013-09-17 07:09:00,62.4,57.5,29.77,SSW,205,0.0,0.0,84,0.00,,,0.00,VWS V14.01,2013-09-17 14:09:00,
2013-09-17 07:15:00,62.4,57.5,29.77,SSE,153,2.7,6.3,84,0.00,,,0.00,VWS V14.01,2013-09-17 14:15:00,
2013-09-17 07:20:00,62.6,57.7,29.77,ESE,116,0.0,3.1,84,0.00,,,0.00,VWS V14.01,2013-09-17 14:20:00,
2013-09-17 07:25:00,62.8,57.9,29.77,ESE,116,0.0,0.0,84,0.00,,,0.00,VWS V14.01,2013-09-17 14:25:00,
2013-09-17 07:31:00,62.8,57.9,29.77,ESE,116,4.0,4.0,84,0.00,,,0.00,VWS V14.01,2013-09-17 14:31:00,
2013-09-17 07:36:00,62.9,58.0,29.77,East,89,0.0,0.0,84,0.00,,OVC005,0.00,VWS V14.01,2013-09-17 14:36:00,
2013-09-17 07:42:00,62.9,57.7,29.77,East,89,0.0,0.0,83,0.00,,OVC005,0.00,VWS V14.01,2013-09-17 14:42:00,
2013-09-17 07:47:00,62.8,57.2,29.77,ESE,114,0.0,2.7,82,0.00,,OVC005,0.00,VWS V14.01,2013-09-17 14:47:00,
2013-09-17 07:53:00,62.8,56.8,29.77,SE,141,3.6,4.9,81,0.00,,OVC005,0.00,VWS V14.01,2013-09-17 14:53:00,
2013-09-17 07:58:00,62.9,57.0,29.77,SE,141,0.0,3.6,81,0.00,,OVC005,0.00,VWS V14.01,2013-09-17 14:58:00,
2013-09-17 08:04:00,63.1,56.9,29.77,SE,141,0.0,0.0,80,0.00,,OVC005,0.00,VWS V14.01,2013-09-17 15:04:00,
2013-09-17 08:10:00,63.3,57.0,29.77,SE,141,0.0,0.0,80,0.00,,,0.00,VWS V14.01,2013-09-17 15:10:00,
2013-09-17 08:15:00,63.5,57.2,29.77,SE,141,0.0,0.0,80,0.00,,OVC005,0.00,VWS V14.01,2013-09-17 15:15:00,
2013-09-17 08:20:00,63.5,57.2,29.77,SE,141,0.0,0.0,80,0.00,,OVC005,0.00,VWS V14.01,2013-09-17 15:20:00,
2013-09-17 08:25:00,63.7,57.4,29.77,SE,141,0.0,0.0,80,0.00,,OVC005,0.00,VWS V14.01,2013-09-17 15:25:00,
2013-09-17 08:31:00,63.7,57.0,29.77,SE,141,0.0,0.0,79,0.00,,OVC005,0.00,VWS V14.01,2013-09-17 15:31:00,
2013-09-17 08:37:00,63.7,57.0,29.77,SE,141,0.0,0.0,79,0.00,,,0.00,VWS V14.01,2013-09-17 15:37:00,
2013-09-17 08:42:00,63.8,56.9,29.77,SE,141,0.0,0.0,78,0.00,,,0.00,VWS V14.01,2013-09-17 15:42:00,
2013-09-17 08:48:00,64.0,57.0,29.77,SE,141,0.0,0.0,78,0.00,,,0.00,VWS V14.01,2013-09-17 15:48:00,
2013-09-17 08:53:00,64.4,57.4,29.77,SE,141,0.0,0.0,78,0.00,,,0.00,VWS V14.01,2013-09-17 15:53:00,
2013-09-17 08:59:00,64.9,57.5,29.77,SE,141,0.0,0.0,77,0.00,,,0.00,VWS V14.01,2013-09-17 15:59:00,
2013-09-17 09:04:00,64.9,56.4,29.77,SE,141,0.0,2.2,74,0.00,,,0.00,VWS V14.01,2013-09-17 16:04:00,
2013-09-17 09:10:00,65.5,57.0,29.77,SE,141,0.0,3.6,74,0.00,,,0.00,VWS V14.01,2013-09-17 16:10:00,
2013-09-17 09:16:00,66.0,57.1,29.77,East,79,5.4,6.3,73,0.00,,,0.00,VWS V14.01,2013-09-17 16:16:00,
2013-09-17 09:21:00,66.5,57.2,29.77,ENE,59,3.6,3.6,72,0.00,,,0.00,VWS V14.01,2013-09-17 16:21:00,
2013-09-17 09:26:00,66.9,57.2,29.77,ENE,59,3.1,3.1,71,0.00,,,0.00,VWS V14.01,2013-09-17 16:26:00,
2013-09-17 09:31:00,66.9,54.3,29.77,SSE,152,3.1,3.1,64,0.00,,,0.00,VWS V14.01,2013-09-17 16:31:00,
2013-09-17 09:37:00,67.3,54.2,29.77,SE,146,0.0,2.7,63,0.00,,,0.00,VWS V14.01,2013-09-17 16:37:00,
2013-09-17 09:43:00,67.1,51.4,29.77,SE,144,0.0,2.7,57,0.00,,,0.00,VWS V14.01,2013-09-17 16:43:00,
2013-09-17 09:49:00,67.6,50.9,29.77,SSE,152,3.1,4.0,55,0.00,,,0.00,VWS V14.01,2013-09-17 16:49:00,
2013-09-17 09:55:00,67.6,50.4,29.77,SE,139,3.6,5.4,54,0.00,,,0.00,VWS V14.01,2013-09-17 16:55:00,
2013-09-17 10:00:00,68.2,50.9,29.77,NE,39,0.0,3.6,54,0.00,,,0.00,VWS V14.01,2013-09-17 17:00:00,
2013-09-17 10:05:00,68.0,49.2,29.77,SE,128,3.6,5.4,51,0.00,,,0.00,VWS V14.01,2013-09-17 17:05:00,
2013-09-17 10:10:00,68.2,49.9,29.77,South,182,0.0,3.6,52,0.00,,,0.00,VWS V14.01,2013-09-17 17:10:00,
2013-09-17 10:16:00,68.7,49.3,29.77,SSW,197,4.0,4.9,50,0.00,,,0.00,VWS V14.01,2013-09-17 17:16:00,
2013-09-17 10:21:00,68.7,48.8,29.77,SSW,197,0.0,3.1,49,0.00,,,0.00,VWS V14.01,2013-09-17 17:21:00,
2013-09-17 10:27:00,69.1,49.1,29.77,SSW,195,4.0,4.0,49,0.00,,,0.00,VWS V14.01,2013-09-17 17:27:00,
2013-09-17 10:32:00,68.9,47.8,29.77,SW,235,4.9,4.9,47,0.00,,,0.00,VWS V14.01,2013-09-17 17:32:00,
2013-09-17 10:37:00,69.1,48.0,29.77,SE,136,5.4,6.7,47,0.00,,OVC012,0.00,VWS V14.01,2013-09-17 17:37:00,
2013-09-17 10:42:00,69.2,48.2,29.77,SSW,195,4.0,4.9,47,0.00,,OVC012,0.00,VWS V14.01,2013-09-17 17:42:00,
2013-09-17 10:48:00,69.4,48.3,29.77,SSW,200,3.1,4.0,47,0.00,,OVC012,0.00,VWS V14.01,2013-09-17 17:48:00,
2013-09-17 10:54:00,70.0,48.2,29.77,SE,141,4.9,5.8,46,0.00,,OVC012,0.00,VWS V14.01,2013-09-17 17:54:00,
2013-09-17 10:59:00,70.1,47.2,29.77,SE,132,3.1,5.8,44,0.00,,OVC012,0.00,VWS V14.01,2013-09-17 17:59:00,
2013-09-17 11:05:00,70.5,48.2,29.77,SE,130,6.3,6.3,45,0.00,,OVC012,0.00,VWS V14.01,2013-09-17 18:05:00,
2013-09-17 11:10:00,70.7,47.1,29.77,SE,133,3.6,6.3,43,0.00,,OVC012,0.00,VWS V14.01,2013-09-17 18:10:00,
2013-09-17 11:15:00,71.6,47.3,29.77,SE,139,0.0,5.4,42,0.00,,OVC012,0.00,VWS V14.01,2013-09-17 18:15:00,
2013-09-17 11:20:00,72.1,46.5,29.77,SE,129,5.4,8.1,40,0.00,,OVC012,0.00,VWS V14.01,2013-09-17 18:20:00,
2013-09-17 11:25:00,73.2,46.1,29.77,SE,138,2.7,4.0,38,0.00,,OVC012,0.00,VWS V14.01,2013-09-17 18:25:00,
2013-09-17 11:30:00,73.7,44.4,29.77,SE,146,3.1,5.4,35,0.00,,OVC012,0.00,VWS V14.01,2013-09-17 18:30:00,
2013-09-17 11:36:00,73.7,43.7,29.77,SW,226,6.3,6.3,34,0.00,,OVC012,0.00,VWS V14.01,2013-09-17 18:36:00,
2013-09-17 11:42:00,74.1,44.7,29.77,South,189,3.1,4.0,35,0.00,,OVC012,0.00,VWS V14.01,2013-09-17 18:42:00,
2013-09-17 11:48:00,75.0,44.0,29.77,SSE,153,5.8,5.8,33,0.00,,OVC012,0.00,VWS V14.01,2013-09-17 18:48:00,
2013-09-17 11:53:00,75.4,43.5,29.77,SSW,197,3.6,4.9,32,0.00,,OVC012,0.00,VWS V14.01,2013-09-17 18:53:00,
2013-09-17 11:58:00,75.5,43.6,29.77,SSW,205,2.2,2.7,32,0.00,,OVC012,0.00,VWS V14.01,2013-09-17 18:58:00,
2013-09-17 12:04:00,75.4,42.7,29.77,SW,214,4.0,4.0,31,0.00,,OVC012,0.00,VWS V14.01,2013-09-17 19:04:00,
2013-09-17 12:09:00,75.4,42.7,29.77,WSW,240,2.7,5.4,31,0.00,,OVC012,0.00,VWS V14.01,2013-09-17 19:09:00,
2013-09-17 12:15:00,73.7,42.9,29.77,SE,126,5.8,5.8,33,0.00,,OVC012,0.00,VWS V14.01,2013-09-17 19:15:00,
2013-09-17 12:20:00,75.0,43.2,29.77,SSW,194,4.0,5.4,32,0.00,,OVC012,0.00,VWS V14.01,2013-09-17 19:20:00,
2013-09-17 12:26:00,74.6,42.9,29.77,SE,141,3.6,6.3,32,0.00,,OVC012,0.00,VWS V14.01,2013-09-17 19:26:00,
2013-09-17 12:31:00,75.0,42.3,29.77,SSW,201,3.1,6.3,31,0.00,,OVC012,0.00,VWS V14.01,2013-09-17 19:31:00,
2013-09-17 12:37:00,75.4,43.5,29.77,SSE,157,5.4,6.3,32,0.00,,SCT014,0.00,VWS V14.01,2013-09-17 19:37:00,
2013-09-17 12:43:00,74.3,42.5,29.77,SE,125,7.6,8.7,32,0.00,,SCT014,0.00,VWS V14.01,2013-09-17 19:43:00,
2013-09-17 12:48:00,75.7,43.0,29.77,South,169,3.1,4.0,31,0.00,,SCT014,0.00,VWS V14.01,2013-09-17 19:48:00,
2013-09-17 12:54:00,76.1,43.3,29.77,East,86,3.6,7.6,31,0.00,,SCT014,0.00,VWS V14.01,2013-09-17 19:54:00,
2013-09-17 13:00:00,75.9,42.3,29.77,South,184,6.3,7.6,30,0.00,,SCT014,0.00,VWS V14.01,2013-09-17 20:00:00,
2013-09-17 13:05:00,75.7,43.0,29.74,SE,142,6.3,6.3,31,0.00,,SCT014,0.00,VWS V14.01,2013-09-17 20:05:00,
2013-09-17 13:11:00,75.9,42.3,29.74,SSE,156,2.7,5.8,30,0.00,,SCT014,0.00,VWS V14.01,2013-09-17 20:11:00,
2013-09-17 13:16:00,75.9,42.3,29.74,SW,214,5.4,6.3,30,0.00,,SCT014,0.00,VWS V14.01,2013-09-17 20:16:00,
2013-09-17 13:21:00,76.4,42.7,29.74,SSE,159,4.0,5.4,30,0.00,,SCT014,0.00,VWS V14.01,2013-09-17 20:21:00,
2013-09-17 13:26:00,76.4,42.7,29.74,South,182,3.6,6.3,30,0.00,,SCT014,0.00,VWS V14.01,2013-09-17 20:26:00,
2013-09-17 13:31:00,76.4,41.9,29.74,SE,129,5.4,8.3,29,0.00,,SCT014,0.00,VWS V14.01,2013-09-17 20:31:00,
2013-09-17 13:36:00,75.5,42.0,29.74,South,187,5.8,5.8,30,0.00,,CLR,0.00,VWS V14.01,2013-09-17 20:36:00,
2013-09-17 13:42:00,75.9,42.3,29.74,SE,139,5.4,5.4,30,0.00,,CLR,0.00,VWS V14.01,2013-09-17 20:42:00,
2013-09-17 13:47:00,76.4,42.7,29.74,SSW,205,6.3,8.3,30,0.00,,CLR,0.00,VWS V14.01,2013-09-17 20:47:00,
2013-09-17 13:52:00,75.7,42.1,29.74,SW,217,3.6,8.1,30,0.00,,CLR,0.00,VWS V14.01,2013-09-17 20:52:00,
2013-09-17 13:57:00,76.3,41.7,29.74,SSW,197,6.3,8.1,29,0.00,,CLR,0.00,VWS V14.01,2013-09-17 20:57:00,
2013-09-17 14:03:00,75.5,42.0,29.74,SE,137,4.9,6.3,30,0.00,,CLR,0.00,VWS V14.01,2013-09-17 21:03:00,
2013-09-17 14:08:00,75.9,41.4,29.74,SE,135,4.0,6.3,29,0.00,,CLR,0.00,VWS V14.01,2013-09-17 21:08:00,
2013-09-17 14:14:00,75.5,42.0,29.74,SW,224,2.7,5.8,30,0.00,,CLR,0.00,VWS V14.01,2013-09-17 21:14:00,
2013-09-17 14:19:00,76.8,43.0,29.71,SE,140,3.1,5.8,30,0.00,,CLR,0.00,VWS V14.01,2013-09-17 21:19:00,
2013-09-17 14:25:00,76.8,40.3,29.71,SSW,208,4.0,7.2,27,0.00,,CLR,0.00,VWS V14.01,2013-09-17 21:25:00,
2013-09-17 14:30:00,76.6,42.0,29.71,SSW,206,4.5,8.1,29,0.00,,CLR,0.00,VWS V14.01,2013-09-17 21:30:00,
2013-09-17 14:36:00,77.5,39.0,29.71,SSE,154,2.7,5.8,25,0.00,,CLR,0.00,VWS V14.01,2013-09-17 21:36:00,
2013-09-17 14:41:00,77.7,41.1,29.71,SSW,208,5.4,5.4,27,0.00,,CLR,0.00,VWS V14.01,2013-09-17 21:41:00,
2013-09-17 14:47:00,77.0,40.5,29.71,SSE,153,4.0,8.7,27,0.00,,CLR,0.00,VWS V14.01,2013-09-17 21:47:00,
2013-09-17 14:53:00,76.8,40.3,29.71,West,277,3.1,7.6,27,0.00,,CLR,0.00,VWS V14.01,2013-09-17 21:53:00,
2013-09-17 14:58:00,76.1,40.6,29.71,South,183,3.6,6.7,28,0.00,,CLR,0.00,VWS V14.01,2013-09-17 21:58:00,
2013-09-17 15:04:00,75.9,42.3,29.71,South,175,6.3,6.3,30,0.00,,CLR,0.00,VWS V14.01,2013-09-17 22:04:00,
2013-09-17 15:10:00,76.1,42.4,29.71,SSE,150,2.7,4.9,30,0.00,,CLR,0.00,VWS V14.01,2013-09-17 22:10:00,
2013-09-17 15:15:00,76.6,42.9,29.71,SSW,211,5.4,5.4,30,0.00,,CLR,0.00,VWS V14.01,2013-09-17 22:15:00,
2013-09-17 15:21:00,75.9,42.3,29.71,SE,124,5.8,6.3,30,0.00,,CLR,0.00,VWS V14.01,2013-09-17 22:21:00,
2013-09-17 15:27:00,76.1,42.4,29.71,SSW,201,4.0,5.4,30,0.00,,CLR,0.00,VWS V14.01,2013-09-17 22:27:00,
2013-09-17 15:32:00,75.5,42.8,29.71,ESE,123,4.0,8.3,31,0.00,,CLR,0.00,VWS V14.01,2013-09-17 22:32:00,
2013-09-17 15:38:00,76.1,42.4,29.71,West,272,6.3,6.3,30,0.00,,CLR,0.00,VWS V14.01,2013-09-17 22:38:00,
2013-09-17 15:43:00,75.7,42.1,29.71,SE,144,4.5,5.4,30,0.00,,CLR,0.00,VWS V14.01,2013-09-17 22:43:00,
2013-09-17 15:49:00,75.4,42.7,29.71,SSW,212,3.6,4.9,31,0.00,,CLR,0.00,VWS V14.01,2013-09-17 22:49:00,
2013-09-17 15:55:00,75.4,42.7,29.71,SSE,147,7.6,7.6,31,0.00,,CLR,0.00,VWS V14.01,2013-09-17 22:55:00,
2013-09-17 16:00:00,75.4,42.7,29.68,SW,227,3.6,7.6,31,0.00,,CLR,0.00,VWS V14.01,2013-09-17 23:00:00,
2013-09-17 16:05:00,75.0,42.3,29.68,SE,146,4.9,4.9,31,0.00,,CLR,0.00,VWS V14.01,2013-09-17 23:05:00,
2013-09-17 16:11:00,75.2,42.5,29.68,WSW,238,2.7,5.8,31,0.00,,CLR,0.00,VWS V14.01,2013-09-17 23:11:00,
2013-09-17 16:17:00,75.2,42.5,29.68,SSW,198,5.8,6.3,31,0.00,,CLR,0.00,VWS V14.01,2013-09-17 23:17:00,
2013-09-17 16:22:00,74.8,42.2,29.68,SSW,213,4.0,6.3,31,0.00,,CLR,0.00,VWS V14.01,2013-09-17 23:22:00,
2013-09-17 16:28:00,74.8,43.0,29.68,South,178,5.8,5.8,32,0.00,,CLR,0.00,VWS V14.01,2013-09-17 23:28:00,
2013-09-17 16:34:00,73.9,43.0,29.68,SSW,209,5.8,5.8,33,0.00,,CLR,0.00,VWS V14.01,2013-09-17 23:34:00,
2013-09-17 16:39:00,73.9,43.0,29.68,SE,135,4.0,4.0,33,0.00,,CLR,0.00,VWS V14.01,2013-09-17 23:39:00,
2013-09-17 16:45:00,74.1,42.4,29.68,South,190,3.6,6.3,32,0.00,,CLR,0.00,VWS V14.01,2013-09-17 23:45:00,
2013-09-17 16:50:00,73.4,43.3,29.68,SSW,210,3.6,4.0,34,0.00,,CLR,0.00,VWS V14.01,2013-09-17 23:50:00,
2013-09-17 16:56:00,73.2,43.2,29.68,SSW,206,0.0,3.1,34,0.00,,CLR,0.00,VWS V14.01,2013-09-17 23:56:00,
2013-09-17 17:01:00,73.2,43.2,29.68,SSE,158,5.4,6.3,34,0.00,,CLR,0.00,VWS V14.01,2013-09-18 00:01:00,
2013-09-17 17:06:00,73.4,43.3,29.68,SSW,195,2.7,5.4,34,0.00,,CLR,0.00,VWS V14.01,2013-09-18 00:06:00,
2013-09-17 17:11:00,73.2,43.2,29.68,SE,145,2.7,5.4,34,0.00,,CLR,0.00,VWS V14.01,2013-09-18 00:11:00,
2013-09-17 17:17:00,72.7,43.5,29.68,South,179,5.4,5.8,35,0.00,,CLR,0.00,VWS V14.01,2013-09-18 00:17:00,
2013-09-17 17:23:00,72.1,43.0,29.68,South,183,3.1,5.4,35,0.00,,CLR,0.00,VWS V14.01,2013-09-18 00:23:00,
2013-09-17 17:29:00,71.9,43.6,29.68,SSE,150,3.1,4.9,36,0.00,,CLR,0.00,VWS V14.01,2013-09-18 00:29:00,
2013-09-17 17:34:00,71.6,44.0,29.68,SSE,157,2.2,4.9,37,0.00,,CLR,0.00,VWS V14.01,2013-09-18 00:34:00,
2013-09-17 17:40:00,71.2,43.6,29.68,SSE,154,4.9,8.1,37,0.00,,CLR,0.00,VWS V14.01,2013-09-18 00:40:00,
2013-09-17 17:45:00,70.9,44.0,29.68,SE,134,2.7,4.0,38,0.00,,CLR,0.00,VWS V14.01,2013-09-18 00:45:00,
2013-09-17 17:51:00,70.5,44.4,29.68,SSW,196,3.6,6.3,39,0.00,,CLR,0.00,VWS V14.01,2013-09-18 00:51:00,
2013-09-17 17:56:00,70.0,44.6,29.68,SW,226,3.1,4.9,40,0.00,,CLR,0.00,VWS V14.01,2013-09-18 00:56:00,
2013-09-17 18:02:00,69.6,45.5,29.68,SE,142,3.1,4.5,42,0.00,,CLR,0.00,VWS V14.01,2013-09-18 01:02:00,
2013-09-17 18:08:00,68.9,46.7,29.68,SE,136,3.6,4.0,45,0.00,,CLR,0.00,VWS V14.01,2013-09-18 01:08:00,
2013-09-17 18:13:00,69.1,46.3,29.68,South,185,3.1,4.9,44,0.00,,CLR,0.00,VWS V14.01,2013-09-18 01:13:00,
2013-09-17 18:18:00,68.7,45.9,29.68,SE,136,3.6,3.6,44,0.00,,CLR,0.00,VWS V14.01,2013-09-18 01:18:00,
2013-09-17 18:23:00,68.7,46.5,29.68,SW,220,2.7,3.6,45,0.00,,CLR,0.00,VWS V14.01,2013-09-18 01:23:00,
2013-09-17 18:29:00,68.5,46.4,29.68,SW,216,2.2,2.7,45,0.00,,CLR,0.00,VWS V14.01,2013-09-18 01:29:00,
2013-09-17 18:34:00,68.2,47.2,29.68,SE,131,0.0,0.0,47,0.00,,CLR,0.00,VWS V14.01,2013-09-18 01:34:00,
2013-09-17 18:40:00,67.6,47.8,29.68,SE,140,2.2,3.1,49,0.00,,CLR,0.00,VWS V14.01,2013-09-18 01:40:00,
2013-09-17 18:45:00,67.1,48.4,29.68,SE,136,0.0,5.8,51,0.00,,CLR,0.00,VWS V14.01,2013-09-18 01:45:00,
2013-09-17 18:51:00,66.7,47.5,29.68,South,182,2.2,3.6,50,0.00,,CLR,0.00,VWS V14.01,2013-09-18 01:51:00,
2013-09-17 18:56:00,66.4,48.7,29.68,SE,126,2.2,3.6,53,0.00,,CLR,0.00,VWS V14.01,2013-09-18 01:56:00,
2013-09-17 19:01:00,66.0,49.4,29.68,SE,127,2.7,4.0,55,0.00,,CLR,0.00,VWS V14.01,2013-09-18 02:01:00,
2013-09-17 19:07:00,65.5,50.3,29.68,SE,131,3.6,6.7,58,0.00,,CLR,0.00,VWS V14.01,2013-09-18 02:07:00,
2013-09-17 19:13:00,65.5,50.3,29.68,SE,131,0.0,3.6,58,0.00,,CLR,0.00,VWS V14.01,2013-09-18 02:13:00,
2013-09-17 19:18:00,65.1,50.9,29.68,SE,126,6.3,6.3,60,0.00,,CLR,0.00,VWS V14.01,2013-09-18 02:18:00,
2013-09-17 19:23:00,64.7,51.0,29.68,SE,130,7.6,7.6,61,0.00,,CLR,0.00,VWS V14.01,2013-09-18 02:23:00,
2013-09-17 19:28:00,64.6,51.7,29.68,SSE,148,2.7,3.1,63,0.00,,CLR,0.00,VWS V14.01,2013-09-18 02:28:00,
2013-09-17 19:33:00,64.6,51.7,29.68,SE,131,5.4,5.4,63,0.00,,CLR,0.00,VWS V14.01,2013-09-18 02:33:00,
2013-09-17 19:39:00,64.2,52.2,29.68,SE,139,5.8,5.8,65,0.00,,CLR,0.00,VWS V14.01,2013-09-18 02:39:00,
2013-09-17 19:44:00,64.2,52.2,29.68,SE,132,0.0,4.0,65,0.00,,CLR,0.00,VWS V14.01,2013-09-18 02:44:00,
2013-09-17 19:50:00,64.2,52.2,29.71,SE,132,3.1,4.5,65,0.00,,CLR,0.00,VWS V14.01,2013-09-18 02:50:00,
2013-09-17 19:55:00,64.0,52.5,29.71,ESE,117,3.1,3.1,66,0.00,,CLR,0.00,VWS V14.01,2013-09-18 02:55:00,
2013-09-17 20:00:00,63.8,52.7,29.71,ESE,115,3.6,3.6,67,0.00,,CLR,0.00,VWS V14.01,2013-09-18 03:00:00,
2013-09-17 20:05:00,63.8,53.1,29.71,SE,141,2.7,3.1,68,0.00,,CLR,0.00,VWS V14.01,2013-09-18 03:05:00,
2013-09-17 20:11:00,63.7,52.9,29.71,SE,141,2.2,3.1,68,0.00,,CLR,0.00,VWS V14.01,2013-09-18 03:11:00,
2013-09-17 20:16:00,63.5,52.7,29.71,SE,136,4.9,5.8,68,0.00,,CLR,0.00,VWS V14.01,2013-09-18 03:16:00,
2013-09-17 20:22:00,63.5,53.1,29.71,SSE,147,4.0,4.0,69,0.00,,CLR,0.00,VWS V14.01,2013-09-18 03:22:00,
2013-09-17 20:27:00,63.3,53.4,29.71,SE,143,0.0,3.1,70,0.00,,CLR,0.00,VWS V14.01,2013-09-18 03:27:00,
2013-09-17 20:32:00,63.1,53.6,29.71,SE,133,5.4,5.4,71,0.00,,CLR,0.00,VWS V14.01,2013-09-18 03:32:00,
2013-09-17 20:37:00,63.1,53.6,29.71,SE,136,3.6,5.4,71,0.00,,CLR,0.00,VWS V14.01,2013-09-18 03:37:00,
2013-09-17 20:43:00,62.9,53.4,29.71,SSE,166,0.0,0.0,71,0.00,,CLR,0.00,VWS V14.01,2013-09-18 03:43:00,
2013-09-17 20:49:00,62.9,53.4,29.71,SE,141,0.0,0.0,71,0.00,,CLR,0.00,VWS V14.01,2013-09-18 03:49:00,
2013-09-17 20:54:00,62.8,53.2,29.71,SE,141,0.0,0.0,71,0.00,,CLR,0.00,VWS V14.01,2013-09-18 03:54:00,
2013-09-17 20:59:00,62.8,53.2,29.71,SE,141,0.0,3.6,71,0.00,,CLR,0.00,VWS V14.01,2013-09-18 03:59:00,
2013-09-17 21:01:00,62.8,53.2,29.71,SE,128,2.7,3.1,71,0.00,,CLR,0.00,VWS V14.01,2013-09-18 04:01:00,
2013-09-17 21:02:00,62.8,53.2,29.71,SE,128,2.2,3.6,71,0.00,,CLR,0.00,VWS V14.01,2013-09-18 04:02:00,
2013-09-17 21:03:00,62.8,53.2,29.71,SSE,158,0.0,2.2,71,0.00,,CLR,0.00,VWS V14.01,2013-09-18 04:03:00,
2013-09-17 21:05:00,62.6,53.1,29.71,SSE,149,0.0,4.5,71,0.00,,CLR,0.00,VWS V14.01,2013-09-18 04:05:00,
2013-09-17 21:08:00,62.8,53.6,29.71,ESE,116,3.6,3.6,72,0.00,,CLR,0.00,VWS V14.01,2013-09-18 04:08:00,
2013-09-17 21:14:00,62.6,53.8,29.71,SE,140,2.7,3.6,73,0.00,,CLR,0.00,VWS V14.01,2013-09-18 04:14:00,
2013-09-17 21:19:00,62.4,53.6,29.71,SSE,150,5.4,5.4,73,0.00,,CLR,0.00,VWS V14.01,2013-09-18 04:19:00,
2013-09-17 21:25:00,62.4,54.0,29.71,SE,135,0.0,2.7,74,0.00,,CLR,0.00,VWS V14.01,2013-09-18 04:25:00,
2013-09-17 21:31:00,62.4,54.4,29.71,SE,136,0.0,4.9,75,0.00,,CLR,0.00,VWS V14.01,2013-09-18 04:31:00,
2013-09-17 21:36:00,62.2,54.2,29.71,SSE,151,0.0,0.0,75,0.00,,CLR,0.00,VWS V14.01,2013-09-18 04:36:00,
2013-09-17 21:42:00,62.2,54.2,29.71,South,170,0.0,2.7,75,0.00,,CLR,0.00,VWS V14.01,2013-09-18 04:42:00,
2013-09-17 21:47:00,62.0,54.0,29.71,SSE,157,2.2,2.2,75,0.00,,CLR,0.00,VWS V14.01,2013-09-18 04:47:00,
2013-09-17 21:53:00,62.0,54.4,29.71,SE,143,4.0,4.0,76,0.00,,CLR,0.00,VWS V14.01,2013-09-18 04:53:00,
2013-09-17 21:59:00,62.0,54.4,29.71,SSE,159,2.7,3.1,76,0.00,,CLR,0.00,VWS V14.01,2013-09-18 04:59:00,
2013-09-17 22:04:00,62.0,54.8,29.71,SE,142,3.1,4.0,77,0.00,,CLR,0.00,VWS V14.01,2013-09-18 05:04:00,
2013-09-17 22:10:00,61.9,54.6,29.71,SSE,147,0.0,2.7,77,0.00,,CLR,0.00,VWS V14.01,2013-09-18 05:10:00,
2013-09-17 22:15:00,61.9,54.6,29.71,ESE,109,2.7,3.1,77,0.00,,CLR,0.00,VWS V14.01,2013-09-18 05:15:00,
2013-09-17 22:21:00,61.7,54.8,29.71,SE,126,4.0,4.9,78,0.00,,CLR,0.00,VWS V14.01,2013-09-18 05:21:00,
2013-09-17 22:27:00,61.5,54.9,29.71,SE,137,3.1,4.9,79,0.00,,CLR,0.00,VWS V14.01,2013-09-18 05:27:00,
2013-09-17 22:32:00,61.5,54.9,29.74,SSE,167,0.0,2.2,79,0.00,,CLR,0.00,VWS V14.01,2013-09-18 05:32:00,
2013-09-17 22:34:00,61.5,55.3,29.74,SE,133,4.0,4.0,80,0.00,,CLR,0.00,VWS V14.01,2013-09-18 05:34:00,
2013-09-17 22:39:00,61.7,55.5,29.74,SE,140,2.2,3.6,80,0.00,,,0.00,VWS V14.01,2013-09-18 05:39:00,
2013-09-17 22:44:00,61.7,55.5,29.74,SE,131,0.0,4.9,80,0.00,,,0.00,VWS V14.01,2013-09-18 05:44:00,
2013-09-17 22:49:00,61.7,55.8,29.74,SE,133,4.0,5.4,81,0.00,,,0.00,VWS V14.01,2013-09-18 05:49:00,
2013-09-17 22:54:00,61.9,56.0,29.74,SE,129,0.0,2.2,81,0.00,,,0.00,VWS V14.01,2013-09-18 05:54:00,
2013-09-17 22:59:00,61.9,56.0,29.74,SSE,164,5.4,5.4,81,0.00,,,0.00,VWS V14.01,2013-09-18 05:59:00,
2013-09-17 23:05:00,62.0,55.8,29.74,ESE,107,2.2,2.2,80,0.00,,,0.00,VWS V14.01,2013-09-18 06:05:00,
2013-09-17 23:10:00,62.0,55.8,29.74,ESE,114,2.7,3.1,80,0.00,,CLR,0.00,VWS V14.01,2013-09-18 06:10:00,
2013-09-17 23:15:00,62.0,55.8,29.74,ESE,112,2.2,3.6,80,0.00,,CLR,0.00,VWS V14.01,2013-09-18 06:15:00,
2013-09-17 23:20:00,62.0,55.5,29.74,SE,146,3.6,5.8,79,0.00,,,0.00,VWS V14.01,2013-09-18 06:20:00,
2013-09-17 23:25:00,62.0,55.5,29.74,SE,128,3.6,5.8,79,0.00,,,0.00,VWS V14.01,2013-09-18 06:25:00,
2013-09-17 23:31:00,62.0,55.5,29.74,ESE,116,3.6,6.3,79,0.00,,,0.00,VWS V14.01,2013-09-18 06:31:00,
2013-09-17 23:37:00,62.0,55.5,29.74,ESE,107,5.4,5.4,79,0.00,,,0.00,VWS V14.01,2013-09-18 06:37:00,
2013-09-17 23:42:00,61.9,55.3,29.74,ESE,115,3.6,5.4,79,0.00,,,0.00,VWS V14.01,2013-09-18 06:42:00,
2013-09-17 23:48:00,62.0,55.5,29.74,ESE,121,2.7,3.1,79,0.00,,,0.00,VWS V14.01,2013-09-18 06:48:00,
2013-09-17 23:53:00,62.0,55.5,29.74,SSE,159,3.1,4.0,79,0.00,,,0.00,VWS V14.01,2013-09-18 06:53:00,
2013-09-17 23:59:00,61.9,54.9,29.74,SSE,156,3.6,5.8,78,0.00,,,0.00,VWS V14.01,2013-09-18 06:59:00,